createdAt,value
2023-02-19T00:00:00.759Z,4.40
2023-02-19T00:02:27.890Z,4.30
2023-02-19T00:04:55.161Z,4.30
2023-02-19T00:07:22.422Z,4.30
2023-02-19T00:09:49.521Z,4.30
2023-02-19T00:12:16.862Z,4.30
2023-02-19T00:14:44.172Z,4.30
2023-02-19T00:17:11.781Z,4.30
2023-02-19T00:19:39.044Z,4.20
2023-02-19T00:22:06.272Z,4.20
2023-02-19T00:24:34.050Z,4.20
2023-02-19T00:27:01.139Z,4.20
2023-02-19T00:29:28.365Z,4.20
2023-02-19T00:31:56.796Z,4.20
2023-02-19T00:34:24.536Z,4.20
2023-02-19T00:36:51.729Z,4.20
2023-02-19T00:39:21.404Z,4.20
2023-02-19T00:41:49.505Z,4.20
2023-02-19T00:44:16.938Z,4.20
2023-02-19T00:46:48.370Z,4.20
2023-02-19T00:49:18.713Z,4.20
2023-02-19T00:51:46.478Z,4.20
2023-02-19T00:54:15.965Z,4.20
2023-02-19T00:56:43.618Z,4.20
2023-02-19T00:59:11.102Z,4.30
2023-02-19T01:01:38.891Z,4.30
2023-02-19T01:04:06.934Z,4.30
2023-02-19T01:06:34.918Z,4.30
2023-02-19T01:09:04.514Z,4.30
2023-02-19T01:11:32.264Z,4.30
2023-02-19T01:14:00.959Z,4.30
2023-02-19T01:16:29.059Z,4.20
2023-02-19T01:18:57.823Z,4.20
2023-02-19T01:21:27.084Z,4.10
2023-02-19T01:23:54.914Z,4.10
2023-02-19T01:26:26.324Z,4.10
2023-02-19T01:28:53.688Z,4.10
2023-02-19T01:31:23.518Z,4.10
2023-02-19T01:33:56.734Z,4.10
2023-02-19T01:36:25.054Z,4.10
2023-02-19T01:38:52.201Z,4.10
2023-02-19T01:41:25.876Z,4.00
2023-02-19T01:44:12.837Z,4.10
2023-02-19T01:46:42.423Z,4.10
2023-02-19T01:49:25.001Z,4.10
2023-02-19T01:52:14.517Z,4.10
2023-02-19T01:54:44.501Z,4.10
2023-02-19T01:57:18.718Z,4.00
2023-02-19T01:59:49.737Z,4.00
2023-02-19T02:02:17.296Z,4.00
2023-02-19T02:04:45.779Z,4.00
2023-02-19T02:07:35.699Z,4.00
2023-02-19T02:10:21.572Z,3.90
2023-02-19T02:12:50.707Z,3.90
2023-02-19T02:15:19.082Z,3.90
2023-02-19T02:17:52.270Z,3.80
2023-02-19T02:20:50.332Z,3.80
2023-02-19T02:23:34.069Z,3.80
2023-02-19T02:26:21.886Z,3.80
2023-02-19T02:29:03.979Z,3.80
2023-02-19T02:31:49.962Z,3.80
2023-02-19T02:34:23.879Z,3.80
2023-02-19T02:36:55.559Z,3.70
2023-02-19T02:39:27.474Z,3.70
2023-02-19T02:42:17.426Z,3.80
2023-02-19T02:45:11.023Z,3.80
2023-02-19T02:47:51.780Z,3.80
2023-02-19T02:50:22.980Z,3.80
2023-02-19T02:53:22.404Z,3.70
2023-02-19T02:55:53.420Z,3.70
2023-02-19T02:58:24.347Z,3.70
2023-02-19T03:01:29.088Z,3.70
2023-02-19T03:04:05.370Z,3.70
2023-02-19T03:06:36.095Z,3.70
2023-02-19T03:09:12.049Z,3.70
2023-02-19T03:12:01.123Z,3.70
2023-02-19T03:15:02.327Z,3.60
2023-02-19T03:18:15.795Z,3.60
2023-02-19T03:20:47.293Z,3.60
2023-02-19T03:23:16.345Z,3.60
2023-02-19T03:26:02.766Z,3.60
2023-02-19T03:29:00.747Z,3.50
2023-02-19T03:31:30.714Z,3.50
2023-02-19T03:34:03.643Z,3.50
2023-02-19T03:36:39.472Z,3.50
2023-02-19T03:39:09.877Z,3.50
2023-02-19T03:42:09.380Z,3.50
2023-02-19T03:44:49.560Z,3.50
2023-02-19T03:47:33.072Z,3.50
2023-02-19T03:50:30.904Z,3.50
2023-02-19T03:53:15.866Z,3.40
2023-02-19T03:55:52.158Z,3.40
2023-02-19T03:58:35.767Z,3.50
2023-02-19T04:01:30.994Z,3.40
2023-02-19T04:04:15.843Z,3.40
2023-02-19T04:06:52.710Z,3.50
2023-02-19T04:09:24.328Z,3.50
2023-02-19T04:12:01.875Z,3.50
2023-02-19T04:14:40.740Z,3.50
2023-02-19T04:17:16.069Z,3.60
2023-02-19T04:19:43.665Z,3.60
2023-02-19T04:22:12.164Z,3.60
2023-02-19T04:24:48.413Z,3.60
2023-02-19T04:27:16.418Z,3.50
2023-02-19T04:29:43.753Z,3.50
2023-02-19T04:32:12.557Z,3.40
2023-02-19T04:34:42.618Z,3.40
2023-02-19T04:37:10.582Z,3.40
2023-02-19T04:39:37.758Z,3.40
2023-02-19T04:42:05.127Z,3.40
2023-02-19T04:44:34.541Z,3.40
2023-02-19T04:47:01.911Z,3.40
2023-02-19T04:49:30.600Z,3.40
2023-02-19T04:51:57.964Z,3.50
2023-02-19T04:54:25.373Z,3.50
2023-02-19T04:56:52.676Z,3.60
2023-02-19T04:59:19.723Z,3.60
2023-02-19T05:01:47.283Z,3.60
2023-02-19T05:04:14.586Z,3.60
2023-02-19T05:06:41.838Z,3.60
2023-02-19T05:09:09.182Z,3.60
2023-02-19T05:11:36.545Z,3.60
2023-02-19T05:14:04.071Z,3.50
2023-02-19T05:16:31.316Z,3.50
2023-02-19T05:18:59.057Z,3.50
2023-02-19T05:21:26.255Z,3.50
2023-02-19T05:23:55.691Z,3.50
2023-02-19T05:26:25.530Z,3.50
2023-02-19T05:28:56.461Z,3.50
2023-02-19T05:31:24.831Z,3.50
2023-02-19T05:33:53.593Z,3.40
2023-02-19T05:36:23.178Z,3.40
2023-02-19T05:38:58.018Z,3.40
2023-02-19T05:41:30.479Z,3.40
2023-02-19T05:43:58.578Z,3.40
2023-02-19T05:46:29.772Z,3.30
2023-02-19T05:48:58.461Z,3.30
2023-02-19T05:51:28.680Z,3.30
2023-02-19T05:53:57.047Z,3.30
2023-02-19T05:56:35.473Z,3.40
2023-02-19T05:59:08.145Z,3.40
2023-02-19T06:01:36.225Z,3.40
2023-02-19T06:04:03.839Z,3.40
2023-02-19T06:06:31.038Z,3.40
2023-02-19T06:08:58.595Z,3.40
2023-02-19T06:11:25.970Z,3.40
2023-02-19T06:13:53.219Z,3.40
2023-02-19T06:16:22.068Z,3.50
2023-02-19T06:18:50.007Z,3.50
2023-02-19T06:21:18.075Z,3.50
2023-02-19T06:23:45.857Z,3.60
2023-02-19T06:26:14.432Z,3.60
2023-02-19T06:28:42.575Z,3.60
2023-02-19T06:31:10.935Z,3.60
2023-02-19T06:33:43.161Z,3.70
2023-02-19T06:36:15.238Z,3.70
2023-02-19T06:38:45.837Z,3.70
2023-02-19T06:41:15.940Z,3.70
2023-02-19T06:43:43.355Z,3.70
2023-02-19T06:46:13.248Z,3.70
2023-02-19T06:48:42.740Z,3.70
2023-02-19T06:51:13.208Z,3.80
2023-02-19T06:53:40.815Z,3.80
2023-02-19T06:56:28.390Z,3.80
2023-02-19T06:58:58.519Z,3.80
2023-02-19T07:01:27.025Z,3.90
2023-02-19T07:03:56.884Z,3.90
2023-02-19T07:06:25.931Z,3.90
2023-02-19T07:08:54.712Z,3.90
2023-02-19T07:11:24.026Z,4.00
2023-02-19T07:14:02.026Z,3.90
2023-02-19T07:16:29.496Z,3.90
2023-02-19T07:18:58.206Z,3.90
2023-02-19T07:21:26.427Z,3.90
2023-02-19T07:23:54.059Z,3.90
2023-02-19T07:26:22.261Z,3.90
2023-02-19T07:28:51.202Z,3.90
2023-02-19T07:31:20.816Z,4.00
2023-02-19T07:33:48.577Z,4.00
2023-02-19T07:36:17.870Z,4.00
2023-02-19T07:38:45.519Z,4.00
2023-02-19T07:41:13.193Z,3.90
2023-02-19T07:43:40.731Z,3.90
2023-02-19T07:46:10.635Z,3.90
2023-02-19T07:48:38.908Z,3.90
2023-02-19T07:51:08.303Z,3.90
2023-02-19T07:53:36.259Z,4.00
2023-02-19T07:56:06.333Z,4.00
2023-02-19T07:58:35.596Z,4.00
2023-02-19T08:01:42.494Z,4.00
2023-02-19T08:04:14.347Z,4.10
2023-02-19T08:06:42.211Z,4.10
2023-02-19T08:09:09.971Z,4.10
2023-02-19T08:11:56.323Z,4.10
2023-02-19T08:14:27.687Z,4.20
2023-02-19T08:16:55.566Z,4.20
2023-02-19T08:19:23.301Z,4.20
2023-02-19T08:21:51.944Z,4.20
2023-02-19T08:24:19.170Z,4.20
2023-02-19T08:26:46.366Z,4.20
2023-02-19T08:29:13.489Z,4.20
2023-02-19T08:31:41.070Z,4.20
2023-02-19T08:34:08.434Z,4.30
2023-02-19T08:36:35.672Z,4.20
2023-02-19T08:39:03.448Z,4.20
2023-02-19T08:41:30.665Z,4.30
2023-02-19T08:43:57.961Z,4.30
2023-02-19T08:46:25.298Z,4.30
2023-02-19T08:48:52.635Z,4.30
2023-02-19T08:51:19.887Z,4.40
2023-02-19T08:53:47.343Z,4.40
2023-02-19T08:56:17.975Z,4.40
2023-02-19T08:58:47.402Z,4.50
2023-02-19T09:01:18.862Z,4.50
2023-02-19T09:03:46.619Z,4.50
2023-02-19T09:06:19.704Z,4.50
2023-02-19T09:08:47.208Z,4.60
2023-02-19T09:11:14.869Z,4.60
2023-02-19T09:13:42.793Z,4.60
2023-02-19T09:16:10.684Z,4.60
2023-02-19T09:18:38.495Z,4.60
2023-02-19T09:21:06.482Z,4.70
2023-02-19T09:23:35.802Z,4.70
2023-02-19T09:26:07.282Z,4.70
2023-02-19T09:28:35.093Z,4.80
2023-02-19T09:31:06.648Z,4.80
2023-02-19T09:33:34.283Z,4.80
2023-02-19T09:36:01.960Z,4.80
2023-02-19T09:38:30.507Z,4.80
2023-02-19T09:40:59.303Z,4.90
2023-02-19T09:43:29.558Z,4.90
2023-02-19T09:46:17.992Z,4.90
2023-02-19T09:48:46.401Z,4.90
2023-02-19T09:51:16.167Z,4.90
2023-02-19T09:53:49.375Z,4.90
2023-02-19T09:56:17.868Z,4.90
2023-02-19T09:58:51.320Z,4.90
2023-02-19T10:01:19.254Z,4.90
2023-02-19T10:03:48.219Z,4.90
2023-02-19T10:06:24.825Z,4.90
2023-02-19T10:08:55.705Z,4.90
2023-02-19T10:11:28.360Z,5.00
2023-02-19T10:14:09.625Z,5.00
2023-02-19T10:16:41.560Z,5.00
2023-02-19T10:19:13.972Z,5.00
2023-02-19T10:21:42.235Z,5.00
2023-02-19T10:24:16.975Z,5.10
2023-02-19T10:26:45.298Z,5.10
2023-02-19T10:29:12.942Z,5.10
2023-02-19T10:31:40.322Z,5.10
2023-02-19T10:34:22.436Z,5.20
2023-02-19T10:36:52.689Z,5.20
2023-02-19T10:39:23.122Z,5.20
2023-02-19T10:41:51.758Z,5.30
2023-02-19T10:44:28.470Z,5.30
2023-02-19T10:47:03.511Z,5.30
2023-02-19T10:49:44.379Z,5.40
2023-02-19T10:52:23.698Z,5.40
2023-02-19T10:54:53.755Z,5.50
2023-02-19T10:57:30.605Z,5.50
2023-02-19T11:00:19.261Z,5.60
2023-02-19T11:02:47.182Z,5.60
2023-02-19T11:05:20.562Z,5.70
2023-02-19T11:07:54.117Z,5.70
2023-02-19T11:10:42.558Z,5.80
2023-02-19T11:13:17.366Z,5.80
2023-02-19T11:15:51.149Z,5.90
2023-02-19T11:18:27.572Z,5.90
2023-02-19T11:20:56.046Z,5.90
2023-02-19T11:23:37.882Z,6.00
2023-02-19T11:26:19.075Z,6.00
2023-02-19T11:28:46.535Z,6.10
2023-02-19T11:31:20.327Z,6.10
2023-02-19T11:34:01.024Z,6.20
2023-02-19T11:36:31.117Z,6.20
2023-02-19T11:39:19.492Z,6.30
2023-02-19T11:42:03.543Z,6.30
2023-02-19T11:44:42.547Z,6.30
2023-02-19T11:47:49.018Z,6.30
2023-02-19T11:50:36.650Z,6.30
2023-02-19T11:53:12.780Z,6.30
2023-02-19T11:56:14.577Z,6.30
2023-02-19T11:58:47.976Z,6.40
2023-02-19T12:01:41.379Z,6.40
2023-02-19T12:04:37.750Z,6.40
2023-02-19T12:07:23.347Z,6.50
2023-02-19T12:10:08.882Z,6.50
2023-02-19T12:12:48.934Z,6.60
2023-02-19T12:15:16.107Z,6.60
2023-02-19T12:18:07.472Z,6.60
2023-02-19T12:20:43.549Z,6.70
2023-02-19T12:23:38.845Z,6.70
2023-02-19T12:26:27.904Z,6.70
2023-02-19T12:29:19.901Z,6.80
2023-02-19T12:32:43.234Z,6.80
2023-02-19T12:35:28.854Z,6.90
2023-02-19T12:38:25.426Z,6.90
2023-02-19T12:41:10.638Z,7.00
2023-02-19T12:43:41.995Z,7.10
2023-02-19T12:46:29.842Z,7.10
2023-02-19T12:49:27.437Z,7.20
2023-02-19T12:52:22.154Z,7.30
2023-02-19T12:54:55.958Z,7.40
2023-02-19T12:57:32.246Z,7.50
2023-02-19T13:00:29.187Z,7.50
2023-02-19T13:02:59.014Z,7.60
2023-02-19T13:05:35.350Z,7.60
2023-02-19T13:08:14.334Z,7.60
2023-02-19T13:11:03.395Z,7.60
2023-02-19T13:13:51.556Z,7.60
2023-02-19T13:16:21.241Z,7.70
2023-02-19T13:19:04.832Z,7.70
2023-02-19T13:21:55.252Z,7.70
2023-02-19T13:24:32.870Z,7.70
2023-02-19T13:27:20.273Z,7.70
2023-02-19T13:29:56.316Z,7.80
2023-02-19T13:32:27.608Z,7.80
2023-02-19T13:34:58.047Z,7.80
2023-02-19T13:37:27.007Z,7.80
2023-02-19T13:39:56.969Z,7.80
2023-02-19T13:42:32.952Z,7.90
2023-02-19T13:45:02.537Z,7.90
2023-02-19T13:48:00.906Z,7.90
2023-02-19T13:50:33.736Z,7.90
2023-02-19T13:53:42.765Z,7.90
2023-02-19T13:56:36.426Z,7.90
2023-02-19T13:59:15.532Z,7.90
2023-02-19T14:01:51.908Z,7.90
2023-02-19T14:04:24.071Z,7.90
2023-02-19T14:07:03.736Z,7.90
2023-02-19T14:09:37.527Z,7.80
2023-02-19T14:12:17.939Z,7.80
2023-02-19T14:14:45.238Z,7.90
2023-02-19T14:17:44.092Z,7.90
2023-02-19T14:20:17.935Z,8.00
2023-02-19T14:22:50.583Z,8.10
2023-02-19T14:25:30.017Z,8.20
2023-02-19T14:28:18.775Z,8.30
2023-02-19T14:30:57.292Z,8.30
2023-02-19T14:33:26.680Z,8.40
2023-02-19T14:36:16.131Z,8.50
2023-02-19T14:38:58.663Z,8.60
2023-02-19T14:41:27.538Z,8.60
2023-02-19T14:43:58.584Z,8.70
2023-02-19T14:46:33.317Z,8.70
2023-02-19T14:49:22.542Z,8.80
2023-02-19T14:52:01.226Z,8.80
2023-02-19T14:54:37.428Z,8.80
2023-02-19T14:57:11.091Z,8.90
2023-02-19T14:59:38.845Z,8.90
2023-02-19T15:02:21.289Z,9.00
2023-02-19T15:04:48.564Z,9.00
2023-02-19T15:07:23.988Z,9.00
2023-02-19T15:09:57.206Z,9.10
2023-02-19T15:12:29.264Z,9.10
2023-02-19T15:15:00.498Z,9.10
2023-02-19T15:17:31.296Z,9.20
2023-02-19T15:20:06.682Z,9.20
2023-02-19T15:22:35.883Z,9.20
2023-02-19T15:25:05.459Z,9.20
2023-02-19T15:27:37.741Z,9.20
2023-02-19T15:30:21.566Z,9.30
2023-02-19T15:33:13.120Z,9.40
2023-02-19T15:35:41.833Z,9.40
2023-02-19T15:38:12.806Z,9.50
2023-02-19T15:40:44.482Z,9.60
2023-02-19T15:43:24.520Z,9.60
2023-02-19T15:45:56.804Z,9.70
2023-02-19T15:48:32.105Z,9.70
2023-02-19T15:51:09.618Z,9.70
2023-02-19T15:53:51.269Z,9.70
2023-02-19T15:56:29.712Z,9.70
2023-02-19T15:59:14.001Z,9.70
2023-02-19T16:01:41.624Z,9.70
2023-02-19T16:04:17.842Z,9.70
2023-02-19T16:07:23.499Z,9.70
2023-02-19T16:10:18.181Z,9.70
2023-02-19T16:12:55.784Z,9.70
2023-02-19T16:15:23.225Z,9.70
2023-02-19T16:17:50.731Z,9.80
2023-02-19T16:20:22.662Z,9.90
2023-02-19T16:22:51.033Z,9.90
2023-02-19T16:25:36.200Z,10.00
2023-02-19T16:28:36.650Z,10.10
2023-02-19T16:31:07.129Z,10.10
2023-02-19T16:33:36.640Z,10.10
2023-02-19T16:36:23.434Z,10.10
2023-02-19T16:39:09.501Z,10.00
2023-02-19T16:41:40.001Z,10.10
2023-02-19T16:44:25.896Z,10.10
2023-02-19T16:46:57.850Z,10.20
2023-02-19T16:49:28.446Z,10.30
2023-02-19T16:51:57.151Z,10.30
2023-02-19T16:54:25.650Z,10.30
2023-02-19T16:56:55.018Z,10.40
2023-02-19T16:59:23.119Z,10.40
2023-02-19T17:01:50.928Z,10.40
2023-02-19T17:04:18.374Z,10.50
2023-02-19T17:06:48.051Z,10.60
2023-02-19T17:09:15.735Z,10.60
2023-02-19T17:11:43.700Z,10.70
2023-02-19T17:14:11.038Z,10.70
2023-02-19T17:16:41.128Z,10.70
2023-02-19T17:19:18.357Z,10.70
2023-02-19T17:21:46.831Z,10.70
2023-02-19T17:24:14.541Z,10.80
2023-02-19T17:26:41.738Z,10.80
2023-02-19T17:29:15.276Z,10.80
2023-02-19T17:31:42.701Z,10.80
2023-02-19T17:34:10.311Z,10.80
2023-02-19T17:36:41.062Z,10.80
2023-02-19T17:39:15.564Z,10.80
2023-02-19T17:41:42.876Z,10.80
2023-02-19T17:44:10.528Z,10.80
2023-02-19T17:46:39.341Z,10.80
2023-02-19T17:49:07.689Z,10.80
2023-02-19T17:51:35.860Z,10.90
2023-02-19T17:54:03.066Z,10.90
2023-02-19T17:56:30.269Z,10.90
2023-02-19T17:58:59.451Z,10.90
2023-02-19T18:01:26.787Z,11.00
2023-02-19T18:03:54.158Z,11.00
2023-02-19T18:06:21.426Z,11.00
2023-02-19T18:08:51.460Z,11.10
2023-02-19T18:11:19.792Z,11.20
2023-02-19T18:13:48.260Z,11.20
2023-02-19T18:16:16.323Z,11.20
2023-02-19T18:18:44.815Z,11.30
2023-02-19T18:21:14.295Z,11.30
2023-02-19T18:23:42.799Z,11.40
2023-02-19T18:26:11.698Z,11.40
2023-02-19T18:28:45.659Z,11.40
2023-02-19T18:31:14.452Z,11.40
2023-02-19T18:33:41.857Z,11.40
2023-02-19T18:36:11.921Z,11.30
2023-02-19T18:38:39.574Z,11.30
2023-02-19T18:41:06.853Z,11.40
2023-02-19T18:43:33.948Z,11.40
2023-02-19T18:46:01.474Z,11.40
2023-02-19T18:48:29.106Z,11.30
2023-02-19T18:50:57.885Z,11.30
2023-02-19T18:53:25.595Z,11.30
2023-02-19T18:55:53.847Z,11.30
2023-02-19T18:58:21.076Z,11.30
2023-02-19T19:00:48.234Z,11.30
2023-02-19T19:03:15.487Z,11.20
2023-02-19T19:05:42.623Z,11.20
2023-02-19T19:08:09.998Z,11.10
2023-02-19T19:10:39.913Z,11.00
2023-02-19T19:13:07.204Z,11.00
2023-02-19T19:15:34.644Z,11.00
2023-02-19T19:18:03.069Z,10.90
2023-02-19T19:20:30.558Z,10.90
2023-02-19T19:22:57.778Z,10.90
2023-02-19T19:25:25.597Z,10.90
2023-02-19T19:27:56.046Z,10.90
2023-02-19T19:30:24.016Z,10.80
2023-02-19T19:32:52.776Z,10.80
2023-02-19T19:35:21.213Z,10.80
2023-02-19T19:37:49.793Z,10.70
2023-02-19T19:40:18.662Z,10.80
2023-02-19T19:42:46.693Z,10.70
2023-02-19T19:45:14.561Z,10.60
2023-02-19T19:47:42.061Z,10.60
2023-02-19T19:50:10.255Z,10.60
2023-02-19T19:52:37.513Z,10.60
2023-02-19T19:55:05.482Z,10.60
2023-02-19T19:57:32.612Z,10.60
2023-02-19T19:59:59.858Z,10.60
2023-02-19T20:02:28.568Z,10.60
2023-02-19T20:04:56.272Z,10.50
2023-02-19T20:07:23.565Z,10.50
2023-02-19T20:09:50.769Z,10.40
2023-02-19T20:12:18.335Z,10.40
2023-02-19T20:14:46.880Z,10.30
2023-02-19T20:17:16.473Z,10.30
2023-02-19T20:19:45.416Z,10.20
2023-02-19T20:22:13.164Z,10.20
2023-02-19T20:24:44.591Z,10.20
2023-02-19T20:27:11.881Z,10.10
2023-02-19T20:29:39.212Z,10.00
2023-02-19T20:32:06.699Z,10.00
2023-02-19T20:34:33.907Z,9.90
2023-02-19T20:37:01.288Z,9.80
2023-02-19T20:39:29.483Z,9.80
2023-02-19T20:41:58.578Z,9.70
2023-02-19T20:44:29.968Z,9.60
2023-02-19T20:46:59.076Z,9.60
2023-02-19T20:49:29.902Z,9.50
2023-02-19T20:52:00.172Z,9.50
2023-02-19T20:54:31.702Z,9.50
2023-02-19T20:57:02.377Z,9.50
2023-02-19T20:59:35.053Z,9.50
2023-02-19T21:02:15.834Z,9.50
2023-02-19T21:04:46.865Z,9.50
2023-02-19T21:07:15.211Z,9.50
2023-02-19T21:09:45.159Z,9.50
2023-02-19T21:12:12.825Z,9.50
2023-02-19T21:14:40.822Z,9.50
2023-02-19T21:17:08.580Z,9.50
2023-02-19T21:19:36.353Z,9.50
2023-02-19T21:22:03.670Z,9.50
2023-02-19T21:24:33.093Z,9.50
2023-02-19T21:27:00.763Z,9.50
2023-02-19T21:29:30.262Z,9.50
2023-02-19T21:31:59.576Z,9.50
2023-02-19T21:34:29.689Z,9.40
2023-02-19T21:36:57.369Z,9.40
2023-02-19T21:39:29.700Z,9.50
2023-02-19T21:42:00.556Z,9.40
2023-02-19T21:44:30.171Z,9.50
2023-02-19T21:46:57.282Z,9.40
2023-02-19T21:49:26.358Z,9.40
2023-02-19T21:51:53.562Z,9.40
2023-02-19T21:54:25.190Z,9.40
2023-02-19T21:56:53.636Z,9.40
2023-02-19T21:59:22.811Z,9.40
2023-02-19T22:01:50.863Z,9.40
2023-02-19T22:04:20.830Z,9.40
2023-02-19T22:06:48.450Z,9.40
2023-02-19T22:09:18.944Z,9.50
2023-02-19T22:11:48.702Z,9.50
2023-02-19T22:14:16.305Z,9.50
2023-02-19T22:16:43.848Z,9.50
2023-02-19T22:19:12.990Z,9.50
2023-02-19T22:21:44.306Z,9.50
2023-02-19T22:24:25.196Z,9.50
2023-02-19T22:26:58.780Z,9.60
2023-02-19T22:29:28.603Z,9.60
2023-02-19T22:31:56.483Z,9.60
2023-02-19T22:34:26.499Z,9.60
2023-02-19T22:36:54.364Z,9.50
2023-02-19T22:39:30.920Z,9.60
2023-02-19T22:42:00.968Z,9.50
2023-02-19T22:44:29.093Z,9.50
2023-02-19T22:46:57.136Z,9.50
2023-02-19T22:49:24.723Z,9.50
2023-02-19T22:52:00.493Z,9.50
2023-02-19T22:54:27.962Z,9.50
2023-02-19T22:56:55.861Z,9.40
2023-02-19T22:59:27.941Z,9.40
2023-02-19T23:01:56.437Z,9.40
2023-02-19T23:04:27.510Z,9.40
2023-02-19T23:06:55.068Z,9.50
2023-02-19T23:09:25.441Z,9.40
2023-02-19T23:12:07.837Z,9.40
2023-02-19T23:14:38.935Z,9.40
2023-02-19T23:17:07.065Z,9.40
2023-02-19T23:19:36.814Z,9.40
2023-02-19T23:22:06.702Z,9.40
2023-02-19T23:24:36.400Z,9.40
2023-02-19T23:27:03.976Z,9.40
2023-02-19T23:29:31.487Z,9.40
2023-02-19T23:32:02.258Z,9.40
2023-02-19T23:34:29.450Z,9.40
2023-02-19T23:37:02.672Z,9.40
2023-02-19T23:39:32.922Z,9.40
2023-02-19T23:42:00.456Z,9.40
2023-02-19T23:44:28.367Z,9.40
2023-02-19T23:46:55.770Z,9.40
2023-02-19T23:49:23.801Z,9.40
2023-02-19T23:51:51.854Z,9.40
2023-02-19T23:54:19.531Z,9.40
2023-02-19T23:56:50.206Z,9.40
2023-02-19T23:59:18.950Z,9.40
